createdAt,value
2023-02-17T00:00:56.898Z,9.88
2023-02-17T00:03:26.110Z,9.52
2023-02-17T00:05:53.942Z,8.73
2023-02-17T00:08:21.776Z,8.88
2023-02-17T00:10:57.494Z,7.53
2023-02-17T00:13:25.669Z,7.85
2023-02-17T00:15:53.915Z,9.25
2023-02-17T00:18:21.811Z,8.13
2023-02-17T00:20:51.575Z,8.75
2023-02-17T00:23:19.499Z,8.07
2023-02-17T00:25:47.319Z,9.20
2023-02-17T00:28:15.143Z,8.52
2023-02-17T00:30:42.902Z,9.27
2023-02-17T00:33:10.717Z,8.85
2023-02-17T00:35:41.752Z,8.50
2023-02-17T00:38:11.297Z,8.65
2023-02-17T00:40:39.304Z,9.02
2023-02-17T00:43:07.142Z,8.88
2023-02-17T00:45:35.074Z,8.30
2023-02-17T00:48:02.911Z,8.73
2023-02-17T00:50:30.772Z,9.18
2023-02-17T00:52:58.579Z,7.68
2023-02-17T00:55:27.869Z,7.80
2023-02-17T00:57:55.644Z,7.22
2023-02-17T01:00:23.978Z,8.38
2023-02-17T01:02:52.087Z,8.73
2023-02-17T01:05:20.397Z,9.10
2023-02-17T01:07:48.363Z,7.78
2023-02-17T01:10:16.400Z,7.13
2023-02-17T01:12:45.689Z,7.10
2023-02-17T01:15:13.663Z,6.00
2023-02-17T01:17:41.420Z,7.38
2023-02-17T01:20:09.701Z,6.55
2023-02-17T01:22:39.520Z,6.40
2023-02-17T01:25:09.079Z,7.55
2023-02-17T01:27:37.334Z,7.43
2023-02-17T01:30:07.748Z,7.55
2023-02-17T01:32:35.549Z,9.38
2023-02-17T01:35:03.428Z,7.15
2023-02-17T01:37:33.248Z,7.70
2023-02-17T01:40:01.124Z,7.55
2023-02-17T01:42:29.190Z,7.10
2023-02-17T01:45:32.616Z,7.20
2023-02-17T01:48:06.688Z,8.27
2023-02-17T01:50:40.301Z,7.97
2023-02-17T01:53:10.205Z,6.47
2023-02-17T01:55:40.658Z,6.95
2023-02-17T01:58:12.863Z,6.15
2023-02-17T02:00:42.431Z,6.63
2023-02-17T02:03:13.174Z,5.93
2023-02-17T02:05:42.934Z,7.78
2023-02-17T02:08:13.189Z,6.78
2023-02-17T02:10:41.367Z,6.25
2023-02-17T02:13:09.924Z,6.20
2023-02-17T02:15:44.538Z,4.93
2023-02-17T02:18:28.380Z,6.30
2023-02-17T02:21:32.083Z,6.32
2023-02-17T02:24:17.666Z,7.43
2023-02-17T02:27:27.284Z,6.07
2023-02-17T02:30:11.704Z,6.38
2023-02-17T02:33:01.730Z,6.22
2023-02-17T02:35:38.205Z,6.40
2023-02-17T02:38:13.178Z,5.93
2023-02-17T02:40:45.670Z,6.28
2023-02-17T02:45:43.648Z,5.28
2023-02-17T02:48:12.928Z,5.78
2023-02-17T02:51:00.945Z,6.55
2023-02-17T02:53:51.292Z,6.65
2023-02-17T02:56:30.984Z,5.55
2023-02-17T02:59:07.420Z,5.38
2023-02-17T03:01:41.896Z,5.70
2023-02-17T03:04:15.625Z,5.15
2023-02-17T03:06:49.208Z,6.80
2023-02-17T03:09:20.802Z,6.78
2023-02-17T03:11:49.352Z,5.43
2023-02-17T03:14:21.524Z,5.75
2023-02-17T03:16:50.629Z,5.93
2023-02-17T03:19:23.527Z,6.35
2023-02-17T03:21:54.530Z,6.75
2023-02-17T03:24:22.326Z,6.25
2023-02-17T03:26:51.453Z,5.53
2023-02-17T03:29:19.395Z,6.85
2023-02-17T03:31:47.204Z,6.38
2023-02-17T03:34:15.025Z,7.35
2023-02-17T03:36:44.173Z,5.28
2023-02-17T03:39:11.908Z,6.15
2023-02-17T03:41:39.660Z,7.07
2023-02-17T03:44:07.641Z,6.72
2023-02-17T03:46:36.119Z,5.95
2023-02-17T03:49:04.051Z,6.50
2023-02-17T03:51:31.803Z,7.60
2023-02-17T03:54:01.024Z,6.75
2023-02-17T03:56:28.803Z,5.95
2023-02-17T03:58:56.592Z,6.57
2023-02-17T04:01:24.389Z,6.63
2023-02-17T04:03:52.343Z,6.45
2023-02-17T04:06:20.183Z,7.05
2023-02-17T04:08:48.015Z,6.63
2023-02-17T04:11:18.701Z,6.45
2023-02-17T04:13:46.445Z,6.20
2023-02-17T04:16:14.324Z,6.72
2023-02-17T04:18:42.184Z,5.65
2023-02-17T04:21:10.054Z,7.75
2023-02-17T04:23:38.659Z,6.47
2023-02-17T04:26:08.666Z,7.70
2023-02-17T04:28:39.389Z,5.95
2023-02-17T04:31:07.656Z,5.75
2023-02-17T04:33:36.269Z,6.72
2023-02-17T04:36:04.845Z,8.18
2023-02-17T04:38:33.810Z,6.85
2023-02-17T04:41:02.347Z,6.43
2023-02-17T04:43:30.497Z,6.45
2023-02-17T04:45:59.968Z,6.13
2023-02-17T04:48:27.848Z,5.78
2023-02-17T04:50:55.886Z,6.35
2023-02-17T04:53:23.814Z,6.80
2023-02-17T04:55:53.934Z,7.53
2023-02-17T04:58:22.297Z,5.97
2023-02-17T05:00:51.703Z,5.93
2023-02-17T05:03:20.992Z,6.25
2023-02-17T05:05:48.868Z,7.97
2023-02-17T05:08:16.687Z,6.13
2023-02-17T05:10:44.798Z,5.78
2023-02-17T05:13:12.662Z,6.60
2023-02-17T05:15:40.481Z,5.70
2023-02-17T05:18:08.244Z,7.25
2023-02-17T05:20:37.403Z,5.88
2023-02-17T05:23:05.160Z,6.22
2023-02-17T05:25:33.373Z,5.90
2023-02-17T05:28:01.419Z,5.97
2023-02-17T05:30:29.774Z,6.55
2023-02-17T05:32:57.652Z,6.28
2023-02-17T05:35:25.821Z,6.30
2023-02-17T05:37:54.918Z,6.07
2023-02-17T05:40:22.846Z,5.55
2023-02-17T05:42:50.600Z,5.45
2023-02-17T05:45:18.601Z,5.68
2023-02-17T05:47:46.412Z,6.05
2023-02-17T05:50:14.350Z,6.72
2023-02-17T05:52:42.081Z,5.32
2023-02-17T05:55:11.352Z,5.28
2023-02-17T05:57:39.334Z,6.20
2023-02-17T06:00:08.397Z,5.93
2023-02-17T06:02:42.400Z,6.50
2023-02-17T06:05:11.049Z,5.97
2023-02-17T06:07:38.900Z,6.13
2023-02-17T06:10:08.577Z,6.85
2023-02-17T06:12:37.961Z,5.65
2023-02-17T06:15:06.249Z,6.35
2023-02-17T06:17:34.091Z,6.05
2023-02-17T06:20:01.963Z,5.82
2023-02-17T06:22:29.755Z,6.28
2023-02-17T06:24:57.685Z,5.65
2023-02-17T06:27:26.131Z,5.93
2023-02-17T06:29:55.378Z,6.50
2023-02-17T06:32:23.361Z,5.60
2023-02-17T06:34:51.138Z,6.47
2023-02-17T06:37:18.882Z,7.15
2023-02-17T06:39:46.627Z,5.13
2023-02-17T06:42:14.408Z,7.07
2023-02-17T06:44:42.200Z,6.95
2023-02-17T06:47:11.315Z,6.55
2023-02-17T06:49:40.745Z,7.15
2023-02-17T06:52:08.942Z,6.53
2023-02-17T06:54:36.674Z,5.68
2023-02-17T06:57:04.722Z,6.15
2023-02-17T06:59:33.666Z,6.47
2023-02-17T07:02:02.627Z,7.60
2023-02-17T07:04:31.985Z,6.93
2023-02-17T07:06:59.789Z,6.05
2023-02-17T07:09:27.635Z,7.60
2023-02-17T07:11:55.412Z,5.47
2023-02-17T07:14:24.955Z,5.72
2023-02-17T07:16:53.385Z,6.65
2023-02-17T07:19:21.223Z,5.78
2023-02-17T07:21:50.386Z,6.82
2023-02-17T07:24:18.445Z,5.95
2023-02-17T07:26:46.241Z,6.65
2023-02-17T07:29:14.094Z,9.02
2023-02-17T07:31:41.992Z,6.20
2023-02-17T07:34:09.823Z,6.20
2023-02-17T07:36:37.665Z,6.25
2023-02-17T07:39:07.054Z,6.22
2023-02-17T07:41:34.823Z,6.45
2023-02-17T07:44:10.070Z,7.13
2023-02-17T07:46:39.570Z,6.78
2023-02-17T07:49:07.357Z,7.22
2023-02-17T07:51:35.368Z,5.40
2023-02-17T07:54:03.153Z,5.82
2023-02-17T07:56:33.755Z,5.88
2023-02-17T07:59:01.698Z,5.97
2023-02-17T08:01:29.473Z,6.10
2023-02-17T08:03:57.808Z,5.47
2023-02-17T08:06:26.989Z,6.38
2023-02-17T08:09:13.489Z,5.50
2023-02-17T08:12:00.957Z,5.82
2023-02-17T08:14:30.655Z,6.45
2023-02-17T08:16:58.849Z,5.93
2023-02-17T08:19:33.818Z,5.68
2023-02-17T08:22:07.379Z,5.82
2023-02-17T08:24:35.316Z,5.60
2023-02-17T08:27:04.736Z,6.93
2023-02-17T08:29:32.650Z,5.05
2023-02-17T08:32:00.896Z,6.13
2023-02-17T08:34:33.575Z,5.63
2023-02-17T08:37:01.830Z,6.88
2023-02-17T08:39:29.911Z,6.30
2023-02-17T08:41:58.094Z,6.38
2023-02-17T08:44:27.400Z,5.88
2023-02-17T08:46:55.558Z,5.40
2023-02-17T08:49:26.926Z,5.53
2023-02-17T08:51:55.148Z,4.93
2023-02-17T08:54:22.903Z,6.32
2023-02-17T08:56:50.774Z,5.03
2023-02-17T08:59:18.664Z,6.18
2023-02-17T09:01:48.008Z,5.88
2023-02-17T09:04:16.835Z,6.25
2023-02-17T09:06:47.248Z,4.97
2023-02-17T09:09:17.846Z,5.43
2023-02-17T09:11:46.458Z,5.18
2023-02-17T09:14:14.342Z,5.22
2023-02-17T09:16:42.261Z,5.20
2023-02-17T09:19:11.516Z,6.65
2023-02-17T09:21:39.405Z,5.13
2023-02-17T09:24:07.686Z,5.53
2023-02-17T09:26:35.850Z,4.78
2023-02-17T09:29:03.931Z,4.88
2023-02-17T09:31:32.266Z,5.15
2023-02-17T09:34:00.409Z,5.28
2023-02-17T09:36:31.865Z,5.40
2023-02-17T09:39:00.348Z,4.80
2023-02-17T09:41:35.825Z,5.85
2023-02-17T09:44:03.834Z,5.55
2023-02-17T09:46:34.319Z,4.80
2023-02-17T09:49:07.265Z,5.20
2023-02-17T09:51:42.983Z,8.50
2023-02-17T09:54:18.362Z,3.95
2023-02-17T09:56:49.324Z,4.45
2023-02-17T09:59:23.945Z,5.20
2023-02-17T10:01:53.473Z,3.80
2023-02-17T10:04:25.886Z,4.15
2023-02-17T10:07:02.335Z,5.10
2023-02-17T10:09:37.150Z,4.72
2023-02-17T10:12:09.652Z,4.85
2023-02-17T10:14:42.420Z,6.03
2023-02-17T10:19:52.888Z,4.10
2023-02-17T10:22:24.811Z,4.80
2023-02-17T10:24:52.687Z,4.93
2023-02-17T10:27:29.557Z,4.00
2023-02-17T10:30:09.835Z,5.82
2023-02-17T10:32:51.712Z,6.05
2023-02-17T10:35:25.738Z,6.22
2023-02-17T10:38:02.537Z,5.18
2023-02-17T10:40:31.009Z,5.63
2023-02-17T10:43:01.568Z,5.38
2023-02-17T10:45:34.683Z,3.65
2023-02-17T10:48:05.517Z,4.78
2023-02-17T10:50:33.940Z,6.13
2023-02-17T10:53:03.170Z,5.80
2023-02-17T10:55:38.599Z,5.65
2023-02-17T10:58:12.190Z,3.97
2023-02-17T11:00:42.440Z,5.13
2023-02-17T11:03:20.409Z,4.63
2023-02-17T11:05:55.498Z,4.20
2023-02-17T11:08:34.298Z,3.90
2023-02-17T11:11:05.539Z,4.03
2023-02-17T11:13:37.429Z,4.10
2023-02-17T11:16:07.154Z,4.80
2023-02-17T11:18:40.144Z,4.13
2023-02-17T11:21:11.272Z,4.53
2023-02-17T11:23:50.492Z,4.22
2023-02-17T11:26:23.182Z,4.80
2023-02-17T11:31:26.908Z,4.22
2023-02-17T11:33:56.872Z,3.83
2023-02-17T11:36:27.037Z,5.03
2023-02-17T11:38:57.537Z,3.78
2023-02-17T11:41:25.312Z,4.63
2023-02-17T11:43:55.274Z,4.45
2023-02-17T11:46:28.785Z,4.00
2023-02-17T11:49:44.175Z,4.88
2023-02-17T11:52:32.501Z,4.10
2023-02-17T11:55:16.704Z,5.68
2023-02-17T11:57:51.951Z,4.10
2023-02-17T12:00:28.450Z,3.78
2023-02-17T12:03:22.077Z,4.85
2023-02-17T12:06:02.559Z,4.40
2023-02-17T12:08:40.224Z,4.30
2023-02-17T12:11:18.816Z,5.22
2023-02-17T12:14:01.538Z,3.80
2023-02-17T12:16:41.209Z,4.38
2023-02-17T12:19:31.716Z,3.80
2023-02-17T12:22:09.657Z,3.88
2023-02-17T12:25:10.239Z,3.17
2023-02-17T12:27:51.732Z,3.97
2023-02-17T12:30:29.261Z,4.10
2023-02-17T12:33:30.812Z,3.67
2023-02-17T12:36:03.382Z,3.90
2023-02-17T12:38:34.465Z,4.88
2023-02-17T12:41:07.998Z,3.47
2023-02-17T12:43:48.008Z,3.80
2023-02-17T12:46:20.962Z,3.60
2023-02-17T12:48:53.241Z,4.20
2023-02-17T12:51:27.387Z,4.53
2023-02-17T12:53:59.414Z,3.40
2023-02-17T12:56:52.395Z,3.78
2023-02-17T12:59:27.338Z,2.97
2023-02-17T13:02:02.403Z,3.67
2023-02-17T13:04:32.444Z,4.43
2023-02-17T13:07:10.761Z,3.45
2023-02-17T13:09:41.437Z,3.30
2023-02-17T13:12:34.507Z,4.30
2023-02-17T13:15:05.985Z,3.65
2023-02-17T13:17:35.957Z,2.70
2023-02-17T13:20:42.482Z,3.42
2023-02-17T13:23:14.519Z,4.00
2023-02-17T13:25:42.619Z,3.83
2023-02-17T13:28:35.293Z,3.50
2023-02-17T13:31:16.924Z,2.80
2023-02-17T13:33:48.774Z,3.45
2023-02-17T13:36:21.560Z,3.65
2023-02-17T13:39:01.563Z,4.38
2023-02-17T13:41:34.630Z,3.88
2023-02-17T13:44:27.706Z,3.35
2023-02-17T13:47:00.930Z,4.00
2023-02-17T13:49:32.957Z,3.00
2023-02-17T13:52:12.626Z,3.85
2023-02-17T13:54:42.004Z,4.07
2023-02-17T13:57:24.416Z,4.10
2023-02-17T13:59:52.325Z,3.58
2023-02-17T14:02:35.438Z,3.55
2023-02-17T14:05:17.613Z,3.80
2023-02-17T14:07:47.505Z,3.17
2023-02-17T14:10:21.274Z,2.92
2023-02-17T14:12:50.121Z,2.80
2023-02-17T14:15:18.647Z,3.22
2023-02-17T14:17:48.391Z,2.97
2023-02-17T14:20:30.668Z,3.97
2023-02-17T14:23:05.657Z,4.07
2023-02-17T14:25:35.865Z,3.53
2023-02-17T14:28:03.781Z,3.28
2023-02-17T14:30:33.632Z,2.60
2023-02-17T14:33:20.038Z,2.65
2023-02-17T14:35:53.883Z,3.45
2023-02-17T14:38:23.833Z,4.05
2023-02-17T14:40:53.272Z,3.63
2023-02-17T14:43:21.199Z,2.67
2023-02-17T14:45:49.568Z,3.95
2023-02-17T14:48:20.442Z,2.40
2023-02-17T14:50:48.605Z,2.80
2023-02-17T14:53:23.908Z,2.08
2023-02-17T14:55:55.332Z,2.83
2023-02-17T14:58:25.210Z,1.90
2023-02-17T15:00:53.014Z,2.55
2023-02-17T15:03:22.211Z,2.38
2023-02-17T15:05:50.503Z,3.72
2023-02-17T15:08:22.054Z,1.95
2023-02-17T15:10:51.601Z,2.28
2023-02-17T15:13:21.279Z,1.55
2023-02-17T15:15:49.751Z,2.17
2023-02-17T15:18:19.917Z,2.05
2023-02-17T15:20:51.480Z,1.60
2023-02-17T15:23:22.193Z,2.45
2023-02-17T15:25:50.620Z,1.55
2023-02-17T15:28:20.030Z,2.17
2023-02-17T15:30:51.470Z,2.00
2023-02-17T15:33:21.269Z,3.22
2023-02-17T15:35:54.495Z,1.65
2023-02-17T15:38:22.716Z,1.67
2023-02-17T15:40:50.571Z,1.80
2023-02-17T15:43:23.104Z,2.60
2023-02-17T15:45:51.024Z,2.17
2023-02-17T15:48:26.265Z,1.85
2023-02-17T15:50:55.505Z,2.03
2023-02-17T15:53:23.762Z,2.05
2023-02-17T15:55:53.320Z,3.75
2023-02-17T15:58:23.203Z,2.22
2023-02-17T16:00:51.470Z,2.97
2023-02-17T16:03:19.443Z,2.70
2023-02-17T16:05:47.918Z,2.90
2023-02-17T16:08:17.160Z,2.50
2023-02-17T16:10:46.750Z,2.90
2023-02-17T16:13:19.490Z,2.58
2023-02-17T16:18:22.047Z,2.08
2023-02-17T16:20:50.987Z,2.00
2023-02-17T16:23:20.234Z,2.38
2023-02-17T16:25:49.586Z,2.38
2023-02-17T16:28:19.714Z,3.72
2023-02-17T16:30:49.479Z,2.75
2023-02-17T16:33:18.208Z,2.75
2023-02-17T16:35:47.105Z,2.60
2023-02-17T16:38:19.152Z,2.20
2023-02-17T16:43:20.316Z,2.85
2023-02-17T16:45:52.994Z,2.22
2023-02-17T16:48:22.646Z,2.00
2023-02-17T16:50:50.468Z,2.40
2023-02-17T16:53:18.664Z,3.60
2023-02-17T16:55:46.779Z,2.38
2023-02-17T16:58:18.412Z,2.38
2023-02-17T17:00:49.427Z,1.95
2023-02-17T17:03:17.255Z,2.63
2023-02-17T17:05:45.197Z,3.47
2023-02-17T17:08:16.054Z,2.35
2023-02-17T17:10:45.371Z,3.40
2023-02-17T17:13:13.993Z,3.05
2023-02-17T17:15:45.160Z,3.55
2023-02-17T17:18:20.883Z,2.85
2023-02-17T17:20:48.849Z,2.42
2023-02-17T17:23:17.060Z,2.47
2023-02-17T17:25:46.784Z,3.38
2023-02-17T17:28:16.265Z,2.60
2023-02-17T17:30:45.756Z,2.47
2023-02-17T17:33:13.598Z,2.63
2023-02-17T17:35:41.518Z,2.20
2023-02-17T17:38:13.966Z,3.40
2023-02-17T17:40:53.308Z,3.33
2023-02-17T17:43:23.426Z,2.38
2023-02-17T17:45:53.394Z,2.58
2023-02-17T17:48:21.680Z,2.78
2023-02-17T17:50:50.617Z,2.53
2023-02-17T17:53:19.158Z,3.95
2023-02-17T17:55:48.635Z,2.20
2023-02-17T17:58:17.233Z,2.80
2023-02-17T18:00:45.226Z,2.67
2023-02-17T18:03:14.411Z,2.50
2023-02-17T18:05:42.302Z,3.33
2023-02-17T18:08:10.223Z,3.63
2023-02-17T18:10:39.871Z,3.17
2023-02-17T18:13:09.572Z,3.10
2023-02-17T18:15:37.724Z,3.38
2023-02-17T18:18:05.670Z,2.90
2023-02-17T18:20:35.323Z,3.80
2023-02-17T18:23:03.342Z,3.28
2023-02-17T18:25:31.279Z,2.72
2023-02-17T18:27:59.106Z,3.53
2023-02-17T18:30:27.505Z,3.10
2023-02-17T18:32:55.807Z,3.13
2023-02-17T18:35:23.818Z,2.55
2023-02-17T18:37:53.104Z,3.53
2023-02-17T18:40:22.441Z,3.08
2023-02-17T18:42:50.492Z,3.58
2023-02-17T18:45:19.806Z,2.83
2023-02-17T18:47:49.031Z,3.47
2023-02-17T18:50:16.968Z,3.65
2023-02-17T18:52:45.609Z,4.03
2023-02-17T18:55:15.576Z,3.47
2023-02-17T18:57:44.780Z,3.60
2023-02-17T19:00:15.524Z,3.60
2023-02-17T19:02:43.458Z,4.22
2023-02-17T19:05:12.298Z,4.28
2023-02-17T19:07:40.223Z,4.10
2023-02-17T19:10:09.381Z,4.43
2023-02-17T19:12:38.652Z,3.17
2023-02-17T19:15:07.209Z,3.35
2023-02-17T19:17:35.286Z,3.65
2023-02-17T19:20:03.251Z,3.33
2023-02-17T19:22:31.162Z,3.85
2023-02-17T19:24:58.952Z,3.72
2023-02-17T19:27:26.780Z,3.72
2023-02-17T19:29:56.175Z,3.67
2023-02-17T19:32:24.259Z,4.10
2023-02-17T19:34:52.149Z,4.05
2023-02-17T19:37:20.239Z,3.80
2023-02-17T19:39:48.066Z,3.88
2023-02-17T19:42:16.009Z,3.85
2023-02-17T19:44:43.991Z,3.75
2023-02-17T19:47:13.232Z,3.83
2023-02-17T19:49:41.122Z,4.93
2023-02-17T19:52:09.133Z,4.68
2023-02-17T19:54:37.082Z,4.38
2023-02-17T19:57:04.975Z,4.20
2023-02-17T19:59:33.210Z,3.78
2023-02-17T20:02:01.274Z,4.07
2023-02-17T20:04:30.610Z,4.90
2023-02-17T20:06:58.682Z,4.32
2023-02-17T20:09:26.545Z,4.30
2023-02-17T20:11:54.394Z,4.68
2023-02-17T20:14:22.841Z,5.05
2023-02-17T20:16:53.148Z,4.05
2023-02-17T20:19:21.328Z,4.60
2023-02-17T20:21:50.508Z,3.70
2023-02-17T20:24:18.554Z,4.88
2023-02-17T20:26:48.214Z,5.68
2023-02-17T20:29:16.199Z,4.50
2023-02-17T20:31:44.143Z,4.70
2023-02-17T20:34:25.138Z,4.30
2023-02-17T20:36:54.859Z,4.78
2023-02-17T20:39:23.272Z,5.10
2023-02-17T20:41:51.609Z,5.40
2023-02-17T20:44:19.454Z,4.80
2023-02-17T20:46:48.143Z,4.55
2023-02-17T20:49:16.464Z,5.18
2023-02-17T20:51:44.414Z,5.65
2023-02-17T20:54:13.828Z,4.55
2023-02-17T20:56:44.253Z,5.35
2023-02-17T20:59:13.948Z,5.35
2023-02-17T21:01:42.727Z,5.22
2023-02-17T21:04:14.011Z,5.30
2023-02-17T21:06:43.043Z,5.55
2023-02-17T21:09:16.445Z,5.40
2023-02-17T21:11:45.425Z,5.50
2023-02-17T21:14:13.994Z,6.05
2023-02-17T21:16:42.146Z,4.53
2023-02-17T21:19:10.301Z,5.75
2023-02-17T21:21:39.006Z,5.45
2023-02-17T21:24:07.209Z,6.28
2023-02-17T21:26:36.972Z,4.70
2023-02-17T21:29:04.904Z,5.38
2023-02-17T21:31:32.926Z,5.82
2023-02-17T21:34:01.179Z,6.47
2023-02-17T21:36:29.595Z,5.50
2023-02-17T21:38:57.888Z,5.75
2023-02-17T21:41:27.748Z,5.95
2023-02-17T21:44:14.745Z,6.13
2023-02-17T21:46:43.361Z,7.60
2023-02-17T21:49:11.959Z,6.97
2023-02-17T21:51:40.791Z,6.88
2023-02-17T21:54:09.682Z,6.95
2023-02-17T21:56:37.815Z,6.50
2023-02-17T21:59:07.296Z,5.93
2023-02-17T22:01:35.247Z,5.63
2023-02-17T22:04:03.580Z,5.88
2023-02-17T22:06:34.120Z,5.20
2023-02-17T22:09:02.547Z,5.90
2023-02-17T22:11:32.263Z,6.50
2023-02-17T22:14:02.875Z,6.18
2023-02-17T22:16:34.586Z,5.82
2023-02-17T22:19:04.312Z,5.57
2023-02-17T22:21:32.283Z,5.63
2023-02-17T22:24:01.151Z,5.15
2023-02-17T22:26:30.218Z,4.80
2023-02-17T22:28:58.735Z,6.15
2023-02-17T22:31:28.647Z,5.05
2023-02-17T22:34:00.367Z,4.90
2023-02-17T22:36:29.078Z,5.65
2023-02-17T22:38:56.897Z,5.22
2023-02-17T22:41:26.021Z,5.65
2023-02-17T22:43:54.401Z,6.15
2023-02-17T22:46:23.851Z,6.22
2023-02-17T22:48:55.874Z,5.10
2023-02-17T22:51:26.840Z,5.38
2023-02-17T22:53:54.968Z,4.68
2023-02-17T22:56:23.228Z,5.65
2023-02-17T22:58:56.325Z,5.70
2023-02-17T23:01:25.564Z,5.65
2023-02-17T23:03:54.533Z,5.85
2023-02-17T23:06:26.463Z,5.05
2023-02-17T23:08:55.246Z,5.90
2023-02-17T23:11:39.681Z,5.82
2023-02-17T23:14:08.254Z,5.90
2023-02-17T23:16:36.694Z,6.03
2023-02-17T23:19:07.195Z,6.03
2023-02-17T23:21:37.122Z,5.18
2023-02-17T23:24:05.474Z,6.15
2023-02-17T23:26:33.322Z,6.80
2023-02-17T23:29:01.152Z,5.18
2023-02-17T23:31:29.007Z,6.07
2023-02-17T23:33:56.933Z,6.15
2023-02-17T23:36:24.832Z,6.80
2023-02-17T23:38:55.583Z,5.93
2023-02-17T23:41:23.506Z,6.78
2023-02-17T23:43:51.549Z,6.63
2023-02-17T23:46:20.588Z,7.13
2023-02-17T23:48:48.658Z,7.80
2023-02-17T23:51:18.216Z,7.90
2023-02-17T23:53:47.064Z,5.93
2023-02-17T23:56:19.620Z,6.10
2023-02-17T23:58:47.476Z,6.00
